Terminal Aerodrome Forecast
Issued by NWS Burlington, VT

Home | Current Version | Previous Version | Text Only | Print | Product List | Glossary On
Versions: 1 2 3 4 5 6 7 8 9 10 11 12 13 14 15
000
FTUS41 KBTV 191720
TAFBTV
TAF
KBTV 191720Z 1918/2018 18016G32KT P6SM SCT200
     FM192100 18012G22KT P6SM VCSH OVC040
     FM200300 18008G17KT 5SM -SHRA BR OVC025
     FM200700 17005KT 5SM -RA BR OVC015
     FM201500 18014G24KT P6SM VCSH OVC015=

USA.gov is the U.S. government's official web portal to all federal, state and local government web resources and services.